createdAt,value
2023-11-21T00:00:02.147Z,99.90
2023-11-21T00:02:30.357Z,99.90
2023-11-21T00:04:57.216Z,99.90
2023-11-21T00:07:26.869Z,99.90
2023-11-21T00:09:53.755Z,99.90
2023-11-21T00:12:22.429Z,99.90
2023-11-21T00:14:56.997Z,99.90
2023-11-21T00:17:27.286Z,99.90
2023-11-21T00:19:54.616Z,99.90
2023-11-21T00:22:24.134Z,99.90
2023-11-21T00:24:51.063Z,99.90
2023-11-21T00:27:17.936Z,99.90
2023-11-21T00:29:44.760Z,99.90
2023-11-21T00:32:12.153Z,99.90
2023-11-21T00:34:39.766Z,99.90
2023-11-21T00:37:06.641Z,99.90
2023-11-21T00:39:34.186Z,99.90
2023-11-21T00:42:01.037Z,99.90
2023-11-21T00:44:27.881Z,99.90
2023-11-21T00:46:55.792Z,99.90
2023-11-21T00:49:23.154Z,99.90
2023-11-21T00:51:50.551Z,99.90
2023-11-21T00:54:18.335Z,99.90
2023-11-21T00:56:45.286Z,99.90
2023-11-21T00:59:12.145Z,1.00
2023-11-21T01:01:39.112Z,1.00
2023-11-21T01:04:07.850Z,1.00
2023-11-21T01:06:34.692Z,1.00
2023-11-21T01:09:01.506Z,1.00
2023-11-21T01:11:28.424Z,1.00
2023-11-21T01:13:55.225Z,1.00
2023-11-21T01:16:22.191Z,1.00
2023-11-21T01:18:49.073Z,1.00
2023-11-21T01:21:16.026Z,1.00
2023-11-21T01:23:42.861Z,1.00
2023-11-21T01:26:09.936Z,1.00
2023-11-21T01:28:36.896Z,1.00
2023-11-21T01:31:04.114Z,1.00
2023-11-21T01:33:31.159Z,1.00
2023-11-21T01:35:58.231Z,1.00
2023-11-21T01:38:25.106Z,1.00
2023-11-21T01:40:52.115Z,1.00
2023-11-21T01:43:19.120Z,1.00
2023-11-21T01:45:48.687Z,1.00
2023-11-21T01:48:17.972Z,1.00
2023-11-21T01:50:46.249Z,1.00
2023-11-21T01:53:14.792Z,1.00
2023-11-21T01:55:46.696Z,1.00
2023-11-21T01:58:14.329Z,1.00
2023-11-21T02:00:41.573Z,1.00
2023-11-21T02:03:08.872Z,99.90
2023-11-21T02:05:35.893Z,1.00
2023-11-21T02:08:04.044Z,1.00
2023-11-21T02:10:32.746Z,1.00
2023-11-21T02:13:01.539Z,1.00
2023-11-21T02:15:30.397Z,1.00
2023-11-21T02:17:59.671Z,1.00
2023-11-21T02:20:27.793Z,1.00
2023-11-21T02:23:02.798Z,1.00
2023-11-21T02:25:32.191Z,1.00
2023-11-21T02:28:02.141Z,1.00
2023-11-21T02:30:29.783Z,1.00
2023-11-21T02:33:00.425Z,1.00
2023-11-21T02:35:28.137Z,1.00
2023-11-21T02:37:55.866Z,99.90
2023-11-21T02:40:23.345Z,99.90
2023-11-21T02:42:54.367Z,99.90
2023-11-21T02:45:22.584Z,99.90
2023-11-21T02:47:51.037Z,99.90
2023-11-21T02:50:21.747Z,99.90
2023-11-21T02:52:48.701Z,99.90
2023-11-21T02:55:15.942Z,99.90
2023-11-21T02:57:43.086Z,99.90
2023-11-21T03:00:14.878Z,99.90
2023-11-21T03:02:42.408Z,99.90
2023-11-21T03:05:12.429Z,99.90
2023-11-21T03:07:40.216Z,99.90
2023-11-21T03:10:10.883Z,99.90
2023-11-21T03:12:39.574Z,99.90
2023-11-21T03:15:07.814Z,99.90
2023-11-21T03:17:38.430Z,99.90
2023-11-21T03:20:07.088Z,1.00
2023-11-21T03:22:34.448Z,1.00
2023-11-21T03:25:02.114Z,1.00
2023-11-21T03:27:29.027Z,1.00
2023-11-21T03:29:56.209Z,1.00
2023-11-21T03:32:23.554Z,1.00
2023-11-21T03:35:00.730Z,1.00
2023-11-21T03:37:31.034Z,72.70
2023-11-21T03:39:58.609Z,99.90
2023-11-21T03:42:28.348Z,99.90
2023-11-21T03:44:55.729Z,71.70
2023-11-21T03:47:23.532Z,34.50
2023-11-21T03:49:53.794Z,1.00
2023-11-21T03:52:20.940Z,23.00
2023-11-21T03:54:47.833Z,1.00
2023-11-21T03:57:18.502Z,1.00
2023-11-21T04:00:21.818Z,1.00
2023-11-21T04:02:52.024Z,1.30
2023-11-21T04:05:22.545Z,1.00
2023-11-21T04:08:08.842Z,1.00
2023-11-21T04:10:54.782Z,1.00
2023-11-21T04:13:22.119Z,1.00
2023-11-21T04:15:49.240Z,1.00
2023-11-21T04:18:16.223Z,1.00
2023-11-21T04:20:45.397Z,1.00
2023-11-21T04:23:14.986Z,1.00
2023-11-21T04:25:42.081Z,35.80
2023-11-21T04:28:09.315Z,1.00
2023-11-21T04:30:36.714Z,1.00
2023-11-21T04:33:04.334Z,1.00
2023-11-21T04:35:31.240Z,1.00
2023-11-21T04:37:58.824Z,1.00
2023-11-21T04:40:28.555Z,1.00
2023-11-21T04:42:55.762Z,1.00
2023-11-21T04:45:22.771Z,1.00
2023-11-21T04:47:49.739Z,1.00
2023-11-21T04:50:16.782Z,1.00
2023-11-21T04:52:43.685Z,1.00
2023-11-21T04:55:11.652Z,1.00
2023-11-21T04:57:39.292Z,1.00
2023-11-21T05:00:07.347Z,1.00
2023-11-21T05:02:37.240Z,1.00
2023-11-21T05:05:07.557Z,1.00
2023-11-21T05:07:37.250Z,1.00
2023-11-21T05:10:12.039Z,1.00
2023-11-21T05:12:39.743Z,1.00
2023-11-21T05:15:14.177Z,1.00
2023-11-21T05:17:45.628Z,1.00
2023-11-21T05:20:15.168Z,1.00
2023-11-21T05:22:43.673Z,1.00
2023-11-21T05:25:12.841Z,1.00
2023-11-21T05:27:39.902Z,1.00
2023-11-21T05:30:07.675Z,1.00
2023-11-21T05:32:35.612Z,1.00
2023-11-21T05:35:02.643Z,1.00
2023-11-21T05:37:30.159Z,1.00
2023-11-21T05:40:06.045Z,1.00
2023-11-21T05:42:34.151Z,1.00
2023-11-21T05:45:10.816Z,1.00
2023-11-21T05:47:47.753Z,1.00
2023-11-21T05:50:17.276Z,1.00
2023-11-21T05:52:46.455Z,1.00
2023-11-21T05:55:14.695Z,1.00
2023-11-21T05:57:44.659Z,1.00
2023-11-21T06:00:16.994Z,1.00
2023-11-21T06:02:43.958Z,1.00
2023-11-21T06:05:11.716Z,1.00
2023-11-21T06:07:39.865Z,1.00
2023-11-21T06:10:10.538Z,1.00
2023-11-21T06:12:37.431Z,1.00
2023-11-21T06:15:07.048Z,1.00
2023-11-21T06:17:34.157Z,1.00
2023-11-21T06:20:02.347Z,1.00
2023-11-21T06:22:31.866Z,1.00
2023-11-21T06:24:59.362Z,1.00
2023-11-21T06:27:26.306Z,1.00
2023-11-21T06:29:53.180Z,1.00
2023-11-21T06:32:22.062Z,1.00
2023-11-21T06:34:51.494Z,1.00
2023-11-21T06:37:18.428Z,1.00
2023-11-21T06:39:45.482Z,99.90
2023-11-21T06:42:12.311Z,99.90
2023-11-21T06:44:39.287Z,99.90
2023-11-21T06:47:06.508Z,94.20
2023-11-21T06:49:33.665Z,1.00
2023-11-21T06:52:00.844Z,1.00
2023-11-21T06:54:28.177Z,21.90
2023-11-21T06:56:54.994Z,41.60
2023-11-21T06:59:21.969Z,24.40
2023-11-21T07:01:49.023Z,76.20
2023-11-21T07:04:16.422Z,81.40
2023-11-21T07:06:44.688Z,99.90
2023-11-21T07:09:13.369Z,99.90
2023-11-21T07:11:43.475Z,99.90
2023-11-21T07:14:11.254Z,99.90
2023-11-21T07:16:39.164Z,99.90
2023-11-21T07:19:07.450Z,99.90
2023-11-21T07:21:37.568Z,99.90
2023-11-21T07:24:05.405Z,99.90
2023-11-21T07:26:32.368Z,99.90
2023-11-21T07:28:59.301Z,99.90
2023-11-21T07:31:26.520Z,99.90
2023-11-21T07:33:54.050Z,99.90
2023-11-21T07:36:24.541Z,99.90
2023-11-21T07:38:51.938Z,99.90
2023-11-21T07:41:28.486Z,1.00
2023-11-21T07:43:58.758Z,1.00
2023-11-21T07:46:27.867Z,1.00
2023-11-21T07:48:54.891Z,1.00
2023-11-21T07:51:21.731Z,1.00
2023-11-21T07:53:48.579Z,99.90
2023-11-21T07:56:15.431Z,99.90
2023-11-21T07:58:42.753Z,99.90
2023-11-21T08:01:09.647Z,99.90
2023-11-21T08:03:36.632Z,99.90
2023-11-21T08:06:04.851Z,99.90
2023-11-21T08:08:31.822Z,99.90
2023-11-21T08:10:58.835Z,99.90
2023-11-21T08:13:28.252Z,99.90
2023-11-21T08:15:57.510Z,99.90
2023-11-21T08:18:24.460Z,99.90
2023-11-21T08:20:51.325Z,1.00
2023-11-21T08:23:18.410Z,1.00
2023-11-21T08:25:46.004Z,92.60
2023-11-21T08:28:15.601Z,1.00
2023-11-21T08:30:42.941Z,1.00
2023-11-21T08:33:10.197Z,99.90
2023-11-21T08:35:39.911Z,1.00
2023-11-21T08:38:07.606Z,1.00
2023-11-21T08:40:36.114Z,99.90
2023-11-21T08:43:05.849Z,1.00
2023-11-21T08:45:35.408Z,1.00
2023-11-21T08:48:03.417Z,1.00
2023-11-21T08:50:30.562Z,1.00
2023-11-21T08:52:57.608Z,1.00
2023-11-21T08:55:24.697Z,99.90
2023-11-21T08:57:52.287Z,1.00
2023-11-21T09:00:21.173Z,99.90
2023-11-21T09:02:48.642Z,1.00
2023-11-21T09:05:17.032Z,1.00
2023-11-21T09:07:44.438Z,1.00
2023-11-21T09:10:11.944Z,1.00
2023-11-21T09:12:39.807Z,1.00
2023-11-21T09:15:11.528Z,1.00
2023-11-21T09:17:38.781Z,1.00
2023-11-21T09:20:07.266Z,1.00
2023-11-21T09:22:34.873Z,1.00
2023-11-21T09:25:08.593Z,1.00
2023-11-21T09:27:41.109Z,1.00
2023-11-21T09:30:16.134Z,1.00
2023-11-21T09:32:47.660Z,1.00
2023-11-21T09:35:21.881Z,1.00
2023-11-21T09:37:57.832Z,1.00
2023-11-21T09:40:27.855Z,1.00
2023-11-21T09:42:59.045Z,1.00
2023-11-21T09:45:40.119Z,1.00
2023-11-21T09:51:38.776Z,1.00
2023-11-21T09:54:16.258Z,99.90
2023-11-21T09:56:51.302Z,1.00
2023-11-21T09:59:31.338Z,1.00
2023-11-21T10:02:07.310Z,1.00
2023-11-21T10:04:34.567Z,16.40
2023-11-21T10:07:02.218Z,1.00
2023-11-21T10:09:29.683Z,1.00
2023-11-21T10:11:58.120Z,99.90
2023-11-21T10:14:27.381Z,1.00
2023-11-21T10:16:59.780Z,1.00
2023-11-21T10:19:28.403Z,1.00
2023-11-21T10:21:55.948Z,1.00
2023-11-21T10:24:23.597Z,1.00
2023-11-21T10:26:54.189Z,1.00
2023-11-21T10:29:23.349Z,1.00
2023-11-21T10:31:52.355Z,99.90
2023-11-21T10:34:21.429Z,1.00
2023-11-21T10:36:48.397Z,1.00
2023-11-21T10:39:20.427Z,1.00
2023-11-21T10:41:52.286Z,1.00
2023-11-21T10:44:22.660Z,1.00
2023-11-21T10:46:52.307Z,1.00
2023-11-21T10:49:26.415Z,1.00
2023-11-21T10:51:54.905Z,18.80
2023-11-21T10:54:23.106Z,1.00
2023-11-21T10:57:02.082Z,1.00
2023-11-21T10:59:33.812Z,1.00
2023-11-21T11:02:06.200Z,1.00
2023-11-21T11:04:33.964Z,1.00
2023-11-21T11:07:06.309Z,40.50
2023-11-21T11:09:35.194Z,40.80
2023-11-21T11:12:05.746Z,90.40
2023-11-21T11:14:33.862Z,1.00
2023-11-21T11:17:03.230Z,1.00
2023-11-21T11:19:30.431Z,1.00
2023-11-21T11:22:26.647Z,1.00
2023-11-21T11:25:19.111Z,99.90
2023-11-21T11:28:04.735Z,99.90
2023-11-21T11:31:01.500Z,99.90
2023-11-21T11:33:59.080Z,99.90
2023-11-21T11:36:42.875Z,99.90
2023-11-21T11:39:30.311Z,99.90
2023-11-21T11:42:02.000Z,99.90
2023-11-21T11:44:47.975Z,1.00
2023-11-21T11:47:19.433Z,1.00
2023-11-21T11:50:08.489Z,1.00
2023-11-21T11:52:35.712Z,1.00
2023-11-21T11:55:05.211Z,1.00
2023-11-21T11:57:40.274Z,1.00
2023-11-21T12:00:19.914Z,1.00
2023-11-21T12:02:53.467Z,1.00
2023-11-21T12:05:24.771Z,1.00
2023-11-21T12:07:55.048Z,1.00
2023-11-21T12:10:26.104Z,1.00
2023-11-21T12:12:59.203Z,1.00
2023-11-21T12:15:27.119Z,1.00
2023-11-21T12:17:54.539Z,1.00
2023-11-21T12:20:23.692Z,1.00
2023-11-21T12:22:52.992Z,1.00
2023-11-21T12:25:25.660Z,1.00
2023-11-21T12:27:53.834Z,1.00
2023-11-21T12:30:29.282Z,1.00
2023-11-21T12:32:57.272Z,1.00
2023-11-21T12:35:28.599Z,1.00
2023-11-21T12:37:58.741Z,1.00
2023-11-21T12:40:26.872Z,1.00
2023-11-21T12:42:58.481Z,1.00
2023-11-21T12:45:27.908Z,1.00
2023-11-21T12:48:11.854Z,99.90
2023-11-21T12:50:40.100Z,99.90
2023-11-21T12:53:10.229Z,99.90
2023-11-21T12:55:41.338Z,99.90
2023-11-21T12:58:12.277Z,99.90
2023-11-21T13:00:43.655Z,99.90
2023-11-21T13:03:17.123Z,99.90
2023-11-21T13:05:49.096Z,99.90
2023-11-21T13:08:21.447Z,41.30
2023-11-21T13:10:52.048Z,1.00
2023-11-21T13:13:23.463Z,1.00
2023-11-21T13:15:54.233Z,16.00
2023-11-21T13:18:23.238Z,99.90
2023-11-21T13:20:51.703Z,99.90
2023-11-21T13:23:18.922Z,1.00
2023-11-21T13:25:55.052Z,1.00
2023-11-21T13:28:33.600Z,1.00
2023-11-21T13:31:11.953Z,56.80
2023-11-21T13:33:42.617Z,99.90
2023-11-21T13:36:11.807Z,1.00
2023-11-21T13:38:44.125Z,1.00
2023-11-21T13:41:14.023Z,1.00
2023-11-21T13:43:52.461Z,1.00
2023-11-21T13:46:23.732Z,1.00
2023-11-21T13:48:58.128Z,99.90
2023-11-21T13:51:38.878Z,99.90
2023-11-21T13:54:11.127Z,99.90
2023-11-21T13:56:41.354Z,99.90
2023-11-21T13:59:18.106Z,99.90
2023-11-21T14:01:58.629Z,99.90
2023-11-21T14:04:58.996Z,99.90
2023-11-21T14:07:37.256Z,99.90
2023-11-21T14:10:08.221Z,1.00
2023-11-21T14:12:40.123Z,1.00
2023-11-21T14:15:11.093Z,1.00
2023-11-21T14:17:42.688Z,1.00
2023-11-21T14:20:17.999Z,1.00
2023-11-21T14:22:45.985Z,1.00
2023-11-21T14:25:17.516Z,1.00
2023-11-21T14:27:44.716Z,1.00
2023-11-21T14:30:14.837Z,1.00
2023-11-21T14:32:43.993Z,77.10
2023-11-21T14:35:11.281Z,99.90
2023-11-21T14:37:38.687Z,99.90
2023-11-21T14:40:08.558Z,1.00
2023-11-21T14:42:38.602Z,1.00
2023-11-21T14:45:08.552Z,99.90
2023-11-21T14:47:35.833Z,99.90
2023-11-21T14:50:23.277Z,1.00
2023-11-21T14:53:00.951Z,1.00
2023-11-21T14:55:33.608Z,1.00
2023-11-21T14:58:05.824Z,1.00
2023-11-21T15:00:36.101Z,99.90
2023-11-21T15:03:04.757Z,3.40
2023-11-21T15:05:32.193Z,23.00
2023-11-21T15:08:12.745Z,1.00
2023-11-21T15:10:47.297Z,99.90
2023-11-21T15:13:16.029Z,99.90
2023-11-21T15:15:43.986Z,99.90
2023-11-21T15:18:13.791Z,99.90
2023-11-21T15:20:45.611Z,99.90
2023-11-21T15:23:15.800Z,99.90
2023-11-21T15:25:42.852Z,99.90
2023-11-21T15:28:10.038Z,99.90
2023-11-21T15:30:37.156Z,1.00
2023-11-21T15:33:05.142Z,99.90
2023-11-21T15:35:34.101Z,99.90
2023-11-21T15:38:01.460Z,1.00
2023-11-21T15:40:28.949Z,1.00
2023-11-21T15:42:56.064Z,1.00
2023-11-21T15:45:25.925Z,1.00
2023-11-21T15:47:54.866Z,1.00
2023-11-21T15:50:22.385Z,1.00
2023-11-21T15:52:57.205Z,1.00
2023-11-21T15:55:28.941Z,1.00
2023-11-21T15:57:55.861Z,1.00
2023-11-21T16:00:24.138Z,1.00
2023-11-21T16:02:51.863Z,99.90
2023-11-21T16:05:19.534Z,99.90
2023-11-21T16:07:46.567Z,1.00
2023-11-21T16:10:15.976Z,1.00
2023-11-21T16:12:44.111Z,1.00
2023-11-21T16:15:11.970Z,1.00
2023-11-21T16:17:40.015Z,1.00
2023-11-21T16:20:10.874Z,1.00
2023-11-21T16:22:39.210Z,1.00
2023-11-21T16:25:12.260Z,1.00
2023-11-21T16:27:40.617Z,1.00
2023-11-21T16:30:10.136Z,1.00
2023-11-21T16:32:38.039Z,1.00
2023-11-21T16:35:05.742Z,1.00
2023-11-21T16:37:33.243Z,1.00
2023-11-21T16:40:00.777Z,1.00
2023-11-21T16:42:32.526Z,1.00
2023-11-21T16:44:59.463Z,1.00
2023-11-21T16:47:28.157Z,54.10
2023-11-21T16:49:57.773Z,1.00
2023-11-21T16:52:25.130Z,1.00
2023-11-21T16:54:52.282Z,1.00
2023-11-21T16:57:19.256Z,1.00
2023-11-21T16:59:51.755Z,99.90
2023-11-21T17:02:20.695Z,99.90
2023-11-21T17:04:50.691Z,99.90
2023-11-21T17:07:24.251Z,99.90
2023-11-21T17:09:52.039Z,99.90
2023-11-21T17:12:20.117Z,99.90
2023-11-21T17:14:49.863Z,99.90
2023-11-21T17:17:17.299Z,99.90
2023-11-21T17:19:45.476Z,1.00
2023-11-21T17:22:13.007Z,1.00
2023-11-21T17:24:40.106Z,1.00
2023-11-21T17:27:11.688Z,1.00
2023-11-21T17:29:38.750Z,1.00
2023-11-21T17:32:06.377Z,1.00
2023-11-21T17:34:33.653Z,99.90
2023-11-21T17:37:01.666Z,99.90
2023-11-21T17:39:28.705Z,99.90
2023-11-21T17:41:55.782Z,99.90
2023-11-21T17:44:22.601Z,99.90
2023-11-21T17:46:49.839Z,99.90
2023-11-21T17:49:16.852Z,99.90
2023-11-21T17:51:43.836Z,99.90
2023-11-21T17:54:10.998Z,99.90
2023-11-21T17:56:37.890Z,99.90
2023-11-21T17:59:05.737Z,99.90
2023-11-21T18:01:40.738Z,99.90
2023-11-21T18:04:11.945Z,1.00
2023-11-21T18:06:40.529Z,99.90
2023-11-21T18:09:10.401Z,1.00
2023-11-21T18:11:37.733Z,1.00
2023-11-21T18:14:11.417Z,1.00
2023-11-21T18:16:40.092Z,99.90
2023-11-21T18:19:07.682Z,1.00
2023-11-21T18:21:35.102Z,1.00
2023-11-21T18:24:03.672Z,1.00
2023-11-21T18:26:30.614Z,1.00
2023-11-21T18:28:58.935Z,1.00
2023-11-21T18:31:26.060Z,1.00
2023-11-21T18:33:54.039Z,1.00
2023-11-21T18:36:21.244Z,1.00
2023-11-21T18:38:48.402Z,1.00
2023-11-21T18:41:23.899Z,1.00
2023-11-21T18:43:51.913Z,1.00
2023-11-21T18:46:19.895Z,1.00
2023-11-21T18:48:49.018Z,99.90
2023-11-21T18:51:16.466Z,99.90
2023-11-21T18:53:43.499Z,99.90
2023-11-21T18:56:25.682Z,1.00
2023-11-21T18:58:53.044Z,99.90
2023-11-21T19:01:27.779Z,1.00
2023-11-21T19:03:57.217Z,1.00
2023-11-21T19:06:25.336Z,99.90
2023-11-21T19:08:52.542Z,1.00
2023-11-21T19:11:20.952Z,1.00
2023-11-21T19:13:48.137Z,1.00
2023-11-21T19:16:17.959Z,1.00
2023-11-21T19:18:45.125Z,7.20
2023-11-21T19:21:16.625Z,1.00
2023-11-21T19:23:44.284Z,1.00
2023-11-21T19:26:11.495Z,1.00
2023-11-21T19:28:38.524Z,1.00
2023-11-21T19:31:05.585Z,1.00
2023-11-21T19:33:32.516Z,1.00
2023-11-21T19:35:59.497Z,1.00
2023-11-21T19:38:26.501Z,1.00
2023-11-21T19:40:53.770Z,1.00
2023-11-21T19:43:20.697Z,1.00
2023-11-21T19:45:48.588Z,1.00
2023-11-21T19:48:18.236Z,1.00
2023-11-21T19:50:45.562Z,1.00
2023-11-21T19:53:12.817Z,1.00
2023-11-21T19:55:39.938Z,1.00
2023-11-21T19:58:08.700Z,1.00
2023-11-21T20:00:36.318Z,1.00
2023-11-21T20:03:04.008Z,1.00
2023-11-21T20:05:31.932Z,1.00
2023-11-21T20:07:59.028Z,1.00
2023-11-21T20:10:26.133Z,1.00
2023-11-21T20:12:58.744Z,1.00
2023-11-21T20:15:27.386Z,1.00
2023-11-21T20:17:54.625Z,1.00
2023-11-21T20:20:22.118Z,52.20
2023-11-21T20:22:49.845Z,99.90
2023-11-21T20:25:19.815Z,99.90
2023-11-21T20:27:48.494Z,99.90
2023-11-21T20:30:16.171Z,1.00
2023-11-21T20:32:43.618Z,99.90
2023-11-21T20:35:11.933Z,1.00
2023-11-21T20:37:39.302Z,1.00
2023-11-21T20:40:08.891Z,99.90
2023-11-21T20:42:37.665Z,99.90
2023-11-21T20:45:05.680Z,99.90
2023-11-21T20:47:34.124Z,99.90
2023-11-21T20:50:01.626Z,99.90
2023-11-21T20:52:28.538Z,99.90
2023-11-21T20:54:56.334Z,99.90
2023-11-21T20:57:25.197Z,1.00
2023-11-21T20:59:52.969Z,1.00
2023-11-21T21:02:20.422Z,1.00
2023-11-21T21:04:47.579Z,1.00
2023-11-21T21:07:15.289Z,1.00
2023-11-21T21:09:43.768Z,1.00
2023-11-21T21:12:12.854Z,1.00
2023-11-21T21:14:39.992Z,1.00
2023-11-21T21:17:07.080Z,99.90
2023-11-21T21:19:34.854Z,99.90
2023-11-21T21:22:02.243Z,99.90
2023-11-21T21:24:29.959Z,99.90
2023-11-21T21:26:57.094Z,99.90
2023-11-21T21:29:28.005Z,99.90
2023-11-21T21:31:55.062Z,42.40
2023-11-21T21:34:22.295Z,1.00
2023-11-21T21:36:50.605Z,1.00
2023-11-21T21:39:18.995Z,1.00
2023-11-21T21:41:47.314Z,25.80
2023-11-21T21:44:17.425Z,8.10
2023-11-21T21:46:44.787Z,1.70
2023-11-21T21:49:14.605Z,1.00
2023-11-21T21:51:42.026Z,98.30
2023-11-21T21:54:10.771Z,99.90
2023-11-21T21:56:39.745Z,99.90
2023-11-21T21:59:08.932Z,99.90
2023-11-21T22:01:39.039Z,99.90
2023-11-21T22:04:09.444Z,99.90
2023-11-21T22:06:37.016Z,99.90
2023-11-21T22:09:04.793Z,99.90
2023-11-21T22:11:31.852Z,99.90
2023-11-21T22:13:58.884Z,99.90
2023-11-21T22:16:28.149Z,99.90
2023-11-21T22:18:56.722Z,99.90
2023-11-21T22:21:25.785Z,99.90
2023-11-21T22:23:53.279Z,1.00
2023-11-21T22:26:25.658Z,1.00
2023-11-21T22:28:52.800Z,1.00
2023-11-21T22:31:19.708Z,1.00
2023-11-21T22:33:47.159Z,1.00
2023-11-21T22:36:16.246Z,1.00
2023-11-21T22:38:45.184Z,1.00
2023-11-21T22:41:12.564Z,1.00
2023-11-21T22:43:41.128Z,1.00
2023-11-21T22:46:08.742Z,1.00
2023-11-21T22:48:36.339Z,1.00
2023-11-21T22:51:04.020Z,1.00
2023-11-21T22:53:31.268Z,1.00
2023-11-21T22:55:58.173Z,1.00
2023-11-21T22:58:25.346Z,1.00
2023-11-21T23:00:57.904Z,1.00
2023-11-21T23:03:25.225Z,1.00
2023-11-21T23:05:53.684Z,1.00
2023-11-21T23:08:20.669Z,1.00
2023-11-21T23:10:48.104Z,1.00
2023-11-21T23:13:15.513Z,1.00
2023-11-21T23:15:48.527Z,1.00
2023-11-21T23:18:18.856Z,1.00
2023-11-21T23:20:46.905Z,1.00
2023-11-21T23:23:14.593Z,1.00
2023-11-21T23:25:41.571Z,1.00
2023-11-21T23:28:09.104Z,1.00
2023-11-21T23:30:36.767Z,1.00
2023-11-21T23:33:04.155Z,1.00
2023-11-21T23:35:32.106Z,1.00
2023-11-21T23:37:59.164Z,1.00
2023-11-21T23:40:26.049Z,1.00
2023-11-21T23:42:52.996Z,1.00
2023-11-21T23:45:22.480Z,1.00
2023-11-21T23:47:49.435Z,1.00
2023-11-21T23:50:21.124Z,1.00
2023-11-21T23:52:53.019Z,1.00
2023-11-21T23:55:25.451Z,1.00
2023-11-21T23:57:55.458Z,1.00
